Weather observations for the past three days for
Stafford, Stafford Regional Airport
Imperial (Metric)
Date Time (edt) Wind (mph) Vis. (mi.) Weather Sky Cond. Temperature (ºF) Relative Humidity Wind Chill (°F) Heat Index (°F) Pressure Precipitation (in)
Air Dwpt 6 hour altimeter (in) sea level (mb) 1 hr 3 hr 6 hr
Max. Min.
04 15:35 SW 9 10.00 Fair CLR 79.7 31.8 17% 78 29.86 0.0
04 15:15 SW 8 10.00 Fair CLR 78.3 31.1 18% 77 29.86 0.0
04 14:55 S 8 10.00 Fair CLR 79.3 30.9 17% 78 29.88 0.0
04 14:35 S 9 G 20 10.00 Fair CLR 78.1 30.2 17% 77 29.89 0.0
04 14:15 S 7 G 17 10.00 Fair CLR 78.1 29.7 17% 77 29.89 0.0
04 13:55 S 8 G 18 10.00 Fair CLR 76.5 28.9 77 53.2 17% 76 29.91 0.0
04 13:35 SW 8 10.00 Fair CLR 75.9 28.8 18% 76 29.91 0.0
04 13:15 SW 7 G 16 10.00 Fair CLR 75.6 30.6 19% 76 29.92 0.0
04 12:55 SW 10 10.00 Fair CLR 75.9 30.9 19% 76 29.92 0.0
04 12:35 S 9 10.00 Fair CLR 74.1 31.1 21% 29.94 0.0
04 12:15 SW 7 10.00 Fair CLR 73.8 30 20% 29.94 0.0
04 11:55 W 5 10.00 Fair CLR 71.8 30.4 22% 29.95 0.0
04 11:35 SW 8 10.00 Fair CLR 71.1 29.8 22% 29.96 0.0
04 11:15 SW 7 10.00 Fair CLR 70.7 31.1 23% 29.97 0.0
04 10:55 SW 6 10.00 Fair CLR 69.4 32 25% 29.97 0.0
04 10:35 S 7 10.00 Fair CLR 68.2 34.3 29% 29.97 0.0
04 10:15 S 6 10.00 Fair CLR 65.8 33.8 30% 29.97 0.0
04 09:55 S 3 10.00 Fair CLR 63.7 33.4 32% 29.97 0.0
04 09:35 S 3 10.00 Fair CLR 62.6 34.7 35% 29.98 0.0
04 09:15 S 5 10.00 Fair CLR 60.8 34.9 38% 29.99 0.0
04 08:55 S 3 10.00 Fair CLR 58.3 34.2 40% 29.99 0.0
04 08:35 S 6 10.00 Fair CLR 56.7 34.9 44% 30 0.0
04 08:15 S 6 10.00 Fair CLR 54.9 35.6 48% 30 0.0
04 07:55 S 3 10.00 Fair CLR 52.9 36.1 52.9 45.7 53% 29.99 0.0
04 07:35 Calm 10.00 Fair CLR 51.4 36 56% 29.99 0.0
04 07:15 Calm 10.00 Partly Cloudy SCT090 49.3 35.4 59% 30 0.0
04 06:55 SE 3 10.00 Overcast OVC090 48.7 35.2 60% 30 0.0
04 06:35 S 3 10.00 Mostly Cloudy BKN100 48.2 35.6 62% 29.99 0.0
04 06:15 Calm 10.00 Mostly Cloudy BKN110 48.6 35.1 60% 29.98 0.0
04 05:55 Calm 10.00 Mostly Cloudy BKN110 48.4 35.2 61% 29.98 0.0
04 05:35 SE 3 10.00 Mostly Cloudy BKN110 49.1 35.4 59% 30 0.0
04 05:15 SE 3 10.00 Mostly Cloudy SCT100 BKN120 48.4 35.6 61% 30 0.0
04 04:55 Calm 10.00 Overcast OVC100 49.1 35.4 59% 29.99 0.0
04 04:35 Calm 10.00 Overcast OVC100 49.6 35.8 59% 30 0.0
04 04:15 Calm 10.00 Overcast OVC100 50 35.2 57% 30.01 0.0
04 03:55 Calm 10.00 Overcast OVC100 49.1 35.6 60% 30 0.0
04 03:35 Calm 10.00 Overcast OVC110 49.1 36 61% 30 0.0
04 03:15 Calm 10.00 Overcast OVC110 48.2 37.2 66% 30 0.0
04 02:55 SE 3 10.00 Mostly Cloudy BKN110 48 37.4 67% 30 0.0
04 02:35 Calm 10.00 Mostly Cloudy BKN110 46.6 37.6 71% 30.01 0.0
04 02:15 Calm 10.00 Overcast OVC120 46.9 37.2 69% 30.01 0.0
04 01:55 Calm 10.00 Overcast OVC120 46.6 37.6 57.2 42.1 71% 30.01 0.0
04 01:35 Calm 10.00 Mostly Cloudy BKN120 46 36.5 69% 30.01 0.0
04 01:15 Calm 10.00 Mostly Cloudy BKN120 47.3 35.6 64% 30.01 0.0
04 00:55 Calm 10.00 Partly Cloudy SCT120 45.5 37 72% 30 0.0
04 00:35 Calm 10.00 Fair CLR 45 35.4 69% 30.01 0.0
04 00:15 Calm 10.00 Fair CLR 43.3 36.1 76% 30 0.0
03 23:55 Calm 10.00 Fair CLR 43.7 35.4 73% 30 0.0
03 23:35 Calm 10.00 Fair CLR 42.1 34.3 74% 30 0.0
03 23:15 NW 3 10.00 Fair CLR 42.8 34.2 72% 29.99 0.0
03 22:55 Calm 10.00 Fair CLR 43.2 34.2 71% 29.99 0.0
03 22:35 Calm 10.00 Fair CLR 43.7 34.2 69% 29.99 0.0
03 22:15 Calm 10.00 Fair CLR 43.7 34.3 70% 30 0.0
03 21:55 Calm 10.00 Fair CLR 46.8 34 61% 29.98 0.0
03 21:35 Calm 10.00 Fair CLR 47.8 34.5 60% 29.99 0.0
03 21:15 Calm 10.00 Fair CLR 49.5 32.7 53% 29.97 0.0
03 20:55 Calm 10.00 Fair CLR 49.8 32.9 52% 29.97 0.0
03 20:35 Calm 10.00 Fair CLR 51.8 33.1 49% 29.97 0.0
03 20:15 Calm 10.00 Fair CLR 54.5 32 43% 29.96 0.0
03 19:55 Calm 10.00 Fair CLR 57.7 28.4 65.5 57.7 33% 29.96 0.0
03 19:35 Calm 10.00 Fair CLR 62.4 19.8 19% 29.96 0.0
03 19:15 Calm 10.00 Fair CLR 62.6 19.6 19% 29.95 0.0
03 18:55 Calm 10.00 Fair CLR 63.3 17.1 17% 29.97 0.0
03 18:35 SW 8 10.00 Fair CLR 64 18 17% 29.96 0.0
03 18:15 Calm 10.00 Fair CLR 64.2 16.2 15% 29.96 0.0
03 17:55 W 3 10.00 Fair CLR 64.4 17.1 16% 29.97 0.0
03 17:35 W 6 10.00 Fair CLR 64.6 17.1 16% 29.97 0.0
03 17:15 NW 3 10.00 Fair CLR 64.4 17.6 16% 29.97 0.0
03 16:55 NW 7 10.00 Fair CLR 64.4 18 17% 29.97 0.0
03 16:35 W 9 10.00 Fair CLR 64.2 17.6 16% 29.97 0.0
03 16:15 W 8 10.00 Fair CLR 63.9 18.1 17% 29.99 0.0
03 15:55 NW 3 10.00 Partly Cloudy SCT075 63.7 17.8 17% 30 0.0
03 15:35 SW 8 10.00 Partly Cloudy SCT075 62.4 19 19% 30 0.0
03 14:55 Calm 10.00 Partly Cloudy SCT075 62.2 18.3 18% 30.02 0.0
03 14:35 W 5 10.00 Partly Cloudy SCT075 61.7 19 19% 30.03 0.0
03 14:15 W 7 10.00 Partly Cloudy SCT075 62.1 18.7 19% 30.03 0.0
03 13:55 NW 13 G 17 10.00 Fair CLR 61.3 18.1 61.3 46.6 19% 30.03 0.0
03 13:35 W 5 10.00 Partly Cloudy SCT070 60.8 19.6 20% 30.03 0.0
03 13:15 W 6 G 17 10.00 Partly Cloudy SCT070 59.2 19.4 21% 30.05 0.0
03 12:55 N 7 G 18 10.00 Fair CLR 59.7 19.8 21% 30.05 0.0
03 12:35 NW 3 G 26 10.00 Fair CLR 58.1 19 22% 30.05 0.0
03 12:15 W 8 10.00 Partly Cloudy SCT065 57.4 20.1 23% 30.06 0.0
03 11:55 NW 10 G 17 10.00 Partly Cloudy SCT065 57 19.6 23% 30.06 0.0
03 11:35 NW 9 G 16 10.00 Partly Cloudy SCT055 56.1 20.7 25% 30.07 0.0
03 11:15 N 10 G 16 10.00 Mostly Cloudy BKN055 53.6 21.6 29% 30.07 0.0
03 10:55 W 7 G 17 10.00 Mostly Cloudy BKN055 53.6 22.5 30% 30.08 0.0
03 10:35 NW 8 G 16 10.00 Mostly Cloudy BKN055 52.5 23.5 32% 30.07 0.0
03 10:15 N 14 G 21 10.00 Partly Cloudy SCT060 SCT065 53.6 23.2 31% 30.07 0.0
03 09:55 NW 8 10.00 Partly Cloudy SCT049 52.3 26.1 36% 30.06 0.0
03 09:35 NW 8 10.00 Partly Cloudy SCT049 50.2 26.8 40% 30.06 0.0
03 09:15 NW 13 G 18 10.00 Fair CLR 50.5 25.3 37% 30.08 0.0
03 08:55 NW 9 10.00 Partly Cloudy SCT042 49.6 27.9 43% 46 30.06 0.0
03 08:35 NW 8 10.00 Fair CLR 48.6 30.2 49% 45 30.07 0.0
03 08:15 NW 7 10.00 Fair CLR 48.2 30.6 51% 46 30.07 0.0
03 07:55 Calm 10.00 Fair CLR 46.6 30.9 47.5 37.8 55% 30.07 0.0
03 07:35 Calm 10.00 Fair CLR 44.6 30.9 59% 30.06 0.0
03 07:15 Calm 10.00 Fair CLR 42.4 31.1 64% 30.05 0.0
03 06:55 NW 3 10.00 Partly Cloudy SCT080 39.9 30.4 69% 30.03 0.0
03 06:35 W 3 10.00 Mostly Cloudy BKN080 40.1 30.4 68% 30.03 0.0
03 06:15 NW 3 10.00 Fair CLR 39 30.2 71% 30.01 0.0
03 05:55 NW 3 10.00 Fair CLR 39.9 30 68% 30 0.0
03 05:35 Calm 10.00 Fair CLR 38.8 29.8 70% 30 0.0
03 05:15 NW 3 10.00 Fair CLR 39.2 29.5 68% 29.99 0.0
03 04:55 Calm 10.00 Fair CLR 39.9 30 68% 29.98 0.0
03 04:35 Calm 10.00 Fair CLR 41 30.2 66% 29.98 0.0
03 04:15 NW 3 10.00 Fair CLR 40.1 29.3 65% 29.97 0.0
03 03:55 NW 5 10.00 Fair CLR 40.5 28.9 64% 38 29.97 0.0
03 03:35 Calm 10.00 Fair CLR 41.5 29.1 61% 29.97 0.0
03 02:55 NW 5 10.00 Overcast OVC100 45.3 29.3 54% 43 29.96 0.0
03 02:35 NW 5 10.00 Overcast OVC100 46.2 29.5 52% 45 29.96 0.0
03 02:15 NW 5 10.00 Overcast SCT070 OVC100 46.8 28.4 49% 45 29.95 0.0
03 01:55 NW 8 10.00 Mostly Cloudy SCT070 BKN100 47.3 28.2 56.3 47.3 48% 44 29.95 0.0
03 01:35 NW 10 10.00 Partly Cloudy SCT100 47.8 28.4 47% 44 29.96 0.0
03 01:15 N 8 10.00 Overcast OVC100 48.7 28.4 45% 46 29.95 0.0
03 00:55 N 12 10.00 Overcast OVC100 50 28.4 43% 46 29.95 0.0
03 00:35 N 8 G 16 10.00 Overcast OVC090 51.1 28.6 42% 29.95 0.0
03 00:15 N 8 10.00 Overcast SCT080 OVC090 51.8 29.5 42% 29.95 0.0
02 23:55 N 6 10.00 Overcast SCT080 BKN095 OVC110 52 29.8 43% 29.94 0.0
02 23:35 NW 6 10.00 Overcast SCT080 OVC095 52.7 29.8 42% 29.94 0.0
02 23:15 N 7 10.00 Overcast OVC095 52.9 30.2 42% 29.93 0.0
02 22:55 N 7 10.00 Overcast OVC095 52.7 30.9 43% 29.94 0.0
02 22:35 NW 5 10.00 Overcast OVC085 53.4 31.1 43% 29.93 0.0
02 22:15 N 5 10.00 Overcast OVC095 53.6 31.3 43% 29.93 0.0
02 21:55 N 5 10.00 Overcast OVC095 53.6 31.5 43% 29.93 0.0
02 21:35 N 5 10.00 Overcast OVC095 53.6 31.8 44% 29.93 0.0
02 21:15 N 5 10.00 Overcast OVC095 53.6 33.1 46% 29.92 0.0
02 20:55 N 3 10.00 Overcast OVC095 54.3 31.3 42% 29.92 0.0
02 20:35 Calm 10.00 Overcast SCT085 OVC090 55 30 38% 29.9 0.0
02 20:15 N 3 10.00 Overcast BKN085 OVC095 55.4 30.2 38% 29.89 0.0
02 19:55 N 5 10.00 Mostly Cloudy SCT075 BKN095 56.5 27.9 62.6 56.3 33% 29.89 0.0
02 19:35 N 8 10.00 Fair CLR 57.2 27.3 32% 29.88 0.0
02 19:15 N 10 10.00 Fair CLR 58.1 26.6 30% 29.89 0.0
02 18:55 N 7 10.00 Fair CLR 58.5 26.6 30% 29.88 0.0
02 18:35 N 7 10.00 Fair CLR 58.5 26.1 29% 29.87 0.0
02 18:15 N 9 10.00 Partly Cloudy SCT080 59.7 25.7 27% 29.87 0.0
02 17:55 NW 5 10.00 Partly Cloudy SCT070 59.7 25.7 27% 29.87 0.0
02 17:35 NE 9 10.00 Partly Cloudy SCT070 60.3 25.3 26% 29.87 0.0
02 17:15 N 12 10.00 Partly Cloudy SCT070 61.5 25.5 25% 29.87 0.0
02 16:55 NW 6 10.00 Partly Cloudy SCT070 60.8 25.9 26% 29.88 0.0
02 16:35 N 13 10.00 Mostly Cloudy BKN070 62.2 26.1 25% 29.87 0.0
02 16:15 N 6 10.00 Overcast OVC060 60.8 26.2 27% 29.88 0.0
02 15:55 NW 3 G 9 10.00 Overcast OVC060 60.1 27.1 29% 29.89 0.0
02 15:35 N 3 10.00 Partly Cloudy SCT060 61.7 27.7 28% 29.9 0.0
02 15:15 NW 5 10.00 Partly Cloudy SCT060 60.8 26.6 27% 29.9 0.0
02 14:55 N 9 10.00 Mostly Cloudy BKN060 60.8 27 28% 29.92 0.0
02 14:35 Calm 10.00 Partly Cloudy SCT060 58.1 27 30% 29.93 0.0
02 14:15 N 8 10.00 Partly Cloudy SCT055 59.7 28.9 31% 29.93 0.0
02 13:55 NW 5 10.00 Partly Cloudy SCT055 59.5 29.8 59.9 48.7 32% 29.95 0.0
02 13:35 NW 10 10.00 Fair CLR 59.4 28.8 31% 29.95 0.0
02 13:15 NW 9 10.00 Fair CLR 58.1 28.9 33% 29.96 0.0
02 12:55 NW 9 10.00 Fair CLR 57.4 27.7 32% 29.95 0.0
02 12:35 NW 3 10.00 Fair CLR 57.7 30.6 36% 29.97 0.0
02 12:15 N 8 G 16 10.00 Fair CLR 57.6 29.7 35% 29.97 0.0
02 11:55 N 6 10.00 Fair CLR 56.8 30.7 37% 29.97 0.0
02 11:35 N 8 10.00 Fair CLR 56.7 31.1 38% 29.97 0.0
02 11:15 N 7 10.00 Fair CLR 55.4 31.5 40% 29.98 0.0
02 10:55 N 7 10.00 Fair CLR 54.7 32.9 44% 29.98 0.0
02 10:35 NW 6 10.00 Fair CLR 54 32.9 45% 29.98 0.0
02 10:15 N 9 G 16 10.00 Fair CLR 53.6 33.4 47% 29.96 0.0
02 09:55 NW 9 10.00 Fair CLR 53.6 34 48% 29.97 0.0
02 09:35 N 10 10.00 Fair CLR 52.5 35.1 52% 29.97 0.0
02 09:15 N 8 10.00 Fair CLR 51.8 36.7 56% 29.96 0.0
02 08:55 N 9 10.00 Fair CLR 50.2 35.8 58% 29.97 0.0
02 08:35 N 8 10.00 Fair CLR 50 35.1 57% 47 29.96 0.0
02 08:15 N 8 G 17 10.00 Fair CLR 49.6 35.6 59% 47 29.97 0.0
02 07:55 N 10 G 16 10.00 Fair CLR 49.1 35.1 51.8 48.2 59% 45 29.97 0.0 0.02
02 07:35 N 12 10.00 Fair CLR 48.6 34.7 59% 44 29.97 0.0
02 07:15 N 12 G 16 10.00 Fair CLR 48.6 35.2 60% 44 29.96 0.0
02 06:55 N 12 10.00 Fair CLR 48.6 35.8 61% 44 29.96 0.0
02 06:35 N 12 G 17 10.00 Fair CLR 49.1 36.5 62% 45 29.94 0.0
02 06:15 N 8 10.00 Fair CLR 49.5 37.9 65% 47 29.93 0.0
02 05:55 N 7 10.00 Fair CLR 49.1 39.7 70% 47 29.92 0.0
02 05:35 N 6 10.00 Partly Cloudy SCT100 50 40.6 70% 48 29.92 0.0
02 05:15 N 7 10.00 Mostly Cloudy BKN100 50 41.5 73% 48 29.92 0.0
02 04:55 N 6 10.00 Overcast OVC110 50 43.2 77% 48 29.92 0.0 0.02
02 04:35 N 5 10.00 Mostly Cloudy BKN110 49.6 43.7 80% 48 29.91 0.0
02 04:15 N 5 10.00 Partly Cloudy SCT110 50 43.5 79% 49 29.91 0.0
02 03:55 N 5 10.00 Partly Cloudy SCT110 48.9 43.9 83% 48 29.89 0.0 0.02
02 03:35 N 5 10.00 Partly Cloudy SCT090 SCT110 48.7 45.7 89% 47 29.9 0.0 0.02
02 03:15 N 3 10.00 Partly Cloudy SCT110 48.2 45.5 90% 29.9 0.0 0.02
02 02:55 Calm 10.00 Partly Cloudy SCT110 48.7 46 90% 29.89 0.0
02 02:35 NW 3 10.00 Partly Cloudy SCT055 50.2 47.1 89% 29.89 0.0
02 02:15 Calm 10.00 Overcast BKN055 OVC110 51.4 48.7 91% 29.92 0.0
02 01:55 Calm 10.00 Overcast SCT055 BKN095 OVC120 51.8 48.4 63.5 51.8 88% 29.9 0.0 0.06
02 01:35 Calm 10.00 Overcast SCT095 OVC120 51.8 48 87% 29.9 0.0
02 01:15 Calm 10.00 Overcast SCT050 BKN090 OVC110 52.5 47.7 84% 29.9 0.0
02 00:55 N 6 10.00 Light Drizzle SCT050 SCT070 OVC090 53.4 47.7 81% 29.9 0.0 0.06
02 00:35 N 3 10.00 Light Rain SCT048 BKN060 OVC095 53.2 47.5 81% 29.9 0.0 0.06
02 00:15 Calm 7.00 Heavy Rain SCT048 OVC075 56.3 41 57% 29.9 0.0 0.02
01 23:55 NW 5 10.00 Overcast BKN075 BKN090 OVC110 55.6 39.2 54% 29.89 0.0
01 23:35 NE 5 10.00 Overcast BKN075 OVC090 56.7 37.8 49% 29.9 0.0
01 22:55 Calm 10.00 Mostly Cloudy SCT090 BKN120 56.3 37 49% 29.86 0.0
01 22:35 S 3 10.00 Partly Cloudy SCT095 SCT120 56.5 36.7 48% 29.85 0.0
01 22:15 S 3 10.00 Partly Cloudy SCT095 56.8 36.5 47% 29.86 0.0
01 21:55 Calm 10.00 Fair CLR 57.7 35.8 44% 29.86 0.0
01 21:35 S 3 10.00 Fair CLR 57.6 36.5 45% 29.86 0.0
01 21:15 S 3 10.00 Partly Cloudy SCT100 57.6 37.2 47% 29.84 0.0
01 20:55 S 3 10.00 Partly Cloudy SCT100 SCT120 60.1 34.5 38% 29.84 0.0
01 20:35 Calm 10.00 Fair CLR 62.4 32.9 33% 29.83 0.0
01 20:15 S 3 10.00 Fair CLR 62.6 32.2 32% 29.82 0.0
01 19:55 S 3 10.00 Fair CLR 63.7 32 70.9 63.7 31% 29.83 0.0
01 19:35 S 5 10.00 Fair CLR 64.9 31.5 29% 29.82 0.0
01 19:15 S 8 10.00 Fair CLR 66.2 29.7 25% 29.83 0.0
01 18:55 S 6 10.00 Fair CLR 67.6 28.6 23% 29.82 0.0
01 18:35 SW 5 10.00 Fair CLR 68.2 26.6 21% 29.84 0.0
01 18:15 S 12 10.00 Fair CLR 68.5 24.8 19% 29.83 0.0
01 17:55 S 12 G 20 10.00 Fair CLR 69.4 25.3 19% 29.83 0.0
01 17:35 SW 7 10.00 Fair CLR 69.4 24.3 18% 29.84 0.0
01 17:15 S 9 10.00 Fair CLR 70 25.7 19% 29.86 0.0
01 16:55 SW 7 10.00 Fair CLR 70.5 24.4 18% 29.85 0.0
01 16:35 S 9 10.00 Fair CLR 70.2 26.6 20% 29.86 0.0
01 16:15 S 8 10.00 Fair CLR 70.2 26.4 19% 29.86 0.0
01 15:55 S 9 G 17 10.00 Fair CLR 70.2 25.7 19% 29.87 0.0
Date Time (edt) Wind (mph) Vis. (mi.) Weather Sky Cond. Air Dwpt Max. Min. Relative Humidity Wind Chill (°F) Heat Index (°F) altimeter (in) sea level (mb) 1 hr 3 hr 6 hr
6 hour
Temperature (ºF) Pressure Precipitation (in)